KSWO/SWO METAR and TAF weather

Enter ICAO airport designator
Station Type Date Time Source
KSWO METAR 2022/08/13 11:53 UTC NOAA

KSWO 131153Z AUTO 16004KT 10SM CLR 23/20 A3007 RMK AO2 SLP169 T02330200 10267 20228 53004


Station Type Date Time Source
KSWO Decoded METAR 2022/08/13 11:53 UTC NOAA

STILLWATER REGIONAL AIRPORT, OK, United States (KSWO) 36-10N 97-05W 290M
Aug 13, 2022 - 07:53 AM EDT / 2022.08.13 1153 UTC
Wind: from the SSE (160 degrees) at 5 MPH (4 KT):0
Visibility: 10 mile(s):0
Sky conditions: clear
Temperature: 73.9 F (23.3 C)
Dew Point: 68.0 F (20.0 C)
Relative Humidity: 81%
Pressure (altimeter): 30.07 in. Hg (1018 hPa)
Pressure tendency: 0.01 inches (0.4 hPa) higher than three hours ago
ob: KSWO 131153Z AUTO 16004KT 10SM CLR 23/20 A3007 RMK AO2 SLP169 T02330200 10267 20228 53004
cycle: 12

Station Type Date Time Source
KSWO TAF 2022/08/13 12:24 UTC NOAA

TAF KSWO 131122Z 1312/1412 12007KT P6SM SKC
FM131300 17008KT P6SM SCT060

Example: see airport list